sensor_id;sensor_type;location;lat;lon;timestamp;pressure;altitude;pressure_sealevel;temperature;humidity
10720;BME280;5411;58.386;15.560;2023-08-17T00:00:57;101083.25;;;17.18;100.00
10720;BME280;5411;58.386;15.560;2023-08-17T00:03:26;101084.31;;;17.17;100.00
10720;BME280;5411;58.386;15.560;2023-08-17T00:05:58;101090.28;;;17.19;100.00
10720;BME280;5411;58.386;15.560;2023-08-17T00:08:31;101079.47;;;17.19;100.00
10720;BME280;5411;58.386;15.560;2023-08-17T00:10:59;101088.19;;;17.21;100.00
10720;BME280;5411;58.386;15.560;2023-08-17T00:13:28;101087.16;;;17.22;100.00
10720;BME280;5411;58.386;15.560;2023-08-17T00:15:56;101089.63;;;17.23;100.00
10720;BME280;5411;58.386;15.560;2023-08-17T00:18:24;101084.81;;;17.25;100.00
10720;BME280;5411;58.386;15.560;2023-08-17T00:20:53;101085.88;;;17.24;100.00
10720;BME280;5411;58.386;15.560;2023-08-17T00:23:21;101092.09;;;17.25;100.00
10720;BME280;5411;58.386;15.560;2023-08-17T00:25:51;101099.38;;;17.24;100.00
10720;BME280;5411;58.386;15.560;2023-08-17T00:28:19;101097.50;;;17.25;100.00
10720;BME280;5411;58.386;15.560;2023-08-17T00:30:48;101096.69;;;17.24;100.00
10720;BME280;5411;58.386;15.560;2023-08-17T00:33:16;101092.94;;;17.25;100.00
10720;BME280;5411;58.386;15.560;2023-08-17T00:35:44;101108.34;;;17.25;100.00
10720;BME280;5411;58.386;15.560;2023-08-17T00:38:13;101103.97;;;17.24;100.00
10720;BME280;5411;58.386;15.560;2023-08-17T00:40:41;101096.91;;;17.23;100.00
10720;BME280;5411;58.386;15.560;2023-08-17T00:43:11;101100.44;;;17.23;100.00
10720;BME280;5411;58.386;15.560;2023-08-17T00:45:44;101106.69;;;17.24;100.00
10720;BME280;5411;58.386;15.560;2023-08-17T00:48:17;101101.50;;;17.22;100.00
10720;BME280;5411;58.386;15.560;2023-08-17T00:50:50;101109.38;;;17.24;100.00
10720;BME280;5411;58.386;15.560;2023-08-17T00:53:20;101112.91;;;17.24;100.00
10720;BME280;5411;58.386;15.560;2023-08-17T00:55:49;101110.81;;;17.26;100.00
10720;BME280;5411;58.386;15.560;2023-08-17T00:58:20;101107.88;;;17.28;100.00
10720;BME280;5411;58.386;15.560;2023-08-17T01:00:52;101108.47;;;17.30;100.00
10720;BME280;5411;58.386;15.560;2023-08-17T01:03:20;101115.78;;;17.29;100.00
10720;BME280;5411;58.386;15.560;2023-08-17T01:05:52;101115.78;;;17.29;100.00
10720;BME280;5411;58.386;15.560;2023-08-17T01:08:20;101116.00;;;17.28;100.00
10720;BME280;5411;58.386;15.560;2023-08-17T01:10:55;101119.75;;;17.27;100.00
10720;BME280;5411;58.386;15.560;2023-08-17T01:13:34;101112.47;;;17.27;100.00
10720;BME280;5411;58.386;15.560;2023-08-17T01:16:05;101120.59;;;17.27;100.00
10720;BME280;5411;58.386;15.560;2023-08-17T01:18:35;101120.59;;;17.27;100.00
10720;BME280;5411;58.386;15.560;2023-08-17T01:21:06;101122.47;;;17.27;100.00
10720;BME280;5411;58.386;15.560;2023-08-17T01:23:37;101132.44;;;17.26;100.00
10720;BME280;5411;58.386;15.560;2023-08-17T01:26:05;101132.69;;;17.25;100.00
10720;BME280;5411;58.386;15.560;2023-08-17T01:28:34;101133.72;;;17.24;100.00
10720;BME280;5411;58.386;15.560;2023-08-17T01:31:05;101142.44;;;17.26;100.00
10720;BME280;5411;58.386;15.560;2023-08-17T01:33:39;101137.63;;;17.28;100.00
10720;BME280;5411;58.386;15.560;2023-08-17T01:36:16;101136.59;;;17.29;100.00
10720;BME280;5411;58.386;15.560;2023-08-17T01:38:48;101140.13;;;17.29;100.00
10720;BME280;5411;58.386;15.560;2023-08-17T01:41:19;101149.06;;;17.30;100.00
10720;BME280;5411;58.386;15.560;2023-08-17T01:43:48;101146.34;;;17.30;100.00
10720;BME280;5411;58.386;15.560;2023-08-17T01:46:17;101148.00;;;17.31;100.00
10720;BME280;5411;58.386;15.560;2023-08-17T01:48:46;101149.63;;;17.32;100.00
10720;BME280;5411;58.386;15.560;2023-08-17T01:51:18;101161.06;;;17.34;100.00
10720;BME280;5411;58.386;15.560;2023-08-17T01:53:48;101153.78;;;17.34;100.00
10720;BME280;5411;58.386;15.560;2023-08-17T01:56:17;101167.06;;;17.36;100.00
10720;BME280;5411;58.386;15.560;2023-08-17T01:58:45;101167.06;;;17.36;100.00
10720;BME280;5411;58.386;15.560;2023-08-17T02:01:14;101163.31;;;17.37;100.00
10720;BME280;5411;58.386;15.560;2023-08-17T02:03:42;101177.06;;;17.35;100.00
10720;BME280;5411;58.386;15.560;2023-08-17T02:06:16;101176.00;;;17.36;100.00
10720;BME280;5411;58.386;15.560;2023-08-17T02:08:54;101179.16;;;17.33;100.00
10720;BME280;5411;58.386;15.560;2023-08-17T02:11:23;101176.47;;;17.33;100.00
10720;BME280;5411;58.386;15.560;2023-08-17T02:13:51;101178.94;;;17.35;100.00
10720;BME280;5411;58.386;15.560;2023-08-17T02:16:19;101186.84;;;17.36;100.00
10720;BME280;5411;58.386;15.560;2023-08-17T02:18:48;101185.63;;;17.32;100.00
10720;BME280;5411;58.386;15.560;2023-08-17T02:21:21;101184.22;;;17.30;100.00
10720;BME280;5411;58.386;15.560;2023-08-17T02:23:49;101187.16;;;17.28;100.00
10720;BME280;5411;58.386;15.560;2023-08-17T02:26:19;101188.22;;;17.27;100.00
10720;BME280;5411;58.386;15.560;2023-08-17T02:28:48;101195.72;;;17.25;100.00
10720;BME280;5411;58.386;15.560;2023-08-17T02:31:16;101200.53;;;17.23;100.00
10720;BME280;5411;58.386;15.560;2023-08-17T02:33:47;101206.75;;;17.24;100.00
10720;BME280;5411;58.386;15.560;2023-08-17T02:36:16;101197.81;;;17.23;100.00
10720;BME280;5411;58.386;15.560;2023-08-17T02:38:46;101203.84;;;17.25;100.00
10720;BME280;5411;58.386;15.560;2023-08-17T02:41:14;101206.91;;;17.29;100.00
10720;BME280;5411;58.386;15.560;2023-08-17T02:43:44;101208.56;;;17.30;100.00
10720;BME280;5411;58.386;15.560;2023-08-17T02:46:12;101217.03;;;17.33;100.00
10720;BME280;5411;58.386;15.560;2023-08-17T02:48:40;101221.78;;;17.38;100.00
10720;BME280;5411;58.386;15.560;2023-08-17T02:51:09;101224.03;;;17.41;100.00
10720;BME280;5411;58.386;15.560;2023-08-17T02:53:37;101224.88;;;17.41;100.00
10720;BME280;5411;58.386;15.560;2023-08-17T02:56:05;101219.25;;;17.43;100.00
10720;BME280;5411;58.386;15.560;2023-08-17T02:58:34;101221.47;;;17.46;100.00
10720;BME280;5411;58.386;15.560;2023-08-17T03:01:04;101216.66;;;17.48;100.00
10720;BME280;5411;58.386;15.560;2023-08-17T03:03:36;101219.16;;;17.50;100.00
10720;BME280;5411;58.386;15.560;2023-08-17T03:06:05;101225.16;;;17.52;100.00
10720;BME280;5411;58.386;15.560;2023-08-17T03:08:34;101222.22;;;17.53;100.00
10720;BME280;5411;58.386;15.560;2023-08-17T03:11:04;101236.38;;;17.55;100.00
10720;BME280;5411;58.386;15.560;2023-08-17T03:13:34;101229.28;;;17.54;100.00
10720;BME280;5411;58.386;15.560;2023-08-17T03:16:04;101228.47;;;17.54;100.00
10720;BME280;5411;58.386;15.560;2023-08-17T03:18:34;101233.88;;;17.54;100.00
10720;BME280;5411;58.386;15.560;2023-08-17T03:21:02;101236.59;;;17.54;100.00
10720;BME280;5411;58.386;15.560;2023-08-17T03:23:33;101234.94;;;17.53;100.00
10720;BME280;5411;58.386;15.560;2023-08-17T03:26:01;101235.97;;;17.52;100.00
10720;BME280;5411;58.386;15.560;2023-08-17T03:28:29;101239.97;;;17.49;100.00
10720;BME280;5411;58.386;15.560;2023-08-17T03:30:58;101233.72;;;17.49;100.00
10720;BME280;5411;58.386;15.560;2023-08-17T03:33:28;101229.59;;;17.46;100.00
10720;BME280;5411;58.386;15.560;2023-08-17T03:35:57;101232.06;;;17.48;100.00
10720;BME280;5411;58.386;15.560;2023-08-17T03:38:25;101232.06;;;17.48;100.00
10720;BME280;5411;58.386;15.560;2023-08-17T03:40:54;101227.47;;;17.48;100.00
10720;BME280;5411;58.386;15.560;2023-08-17T03:43:22;101231.25;;;17.47;100.00
10720;BME280;5411;58.386;15.560;2023-08-17T03:45:50;101234.56;;;17.49;100.00
10720;BME280;5411;58.386;15.560;2023-08-17T03:48:19;101246.19;;;17.50;100.00
10720;BME280;5411;58.386;15.560;2023-08-17T03:50:53;101243.28;;;17.51;100.00
10720;BME280;5411;58.386;15.560;2023-08-17T03:53:22;101245.38;;;17.49;100.00
10720;BME280;5411;58.386;15.560;2023-08-17T03:55:51;101243.72;;;17.48;100.00
10720;BME280;5411;58.386;15.560;2023-08-17T03:58:19;101248.31;;;17.48;100.00
10720;BME280;5411;58.386;15.560;2023-08-17T04:00:49;101233.72;;;17.49;100.00
10720;BME280;5411;58.386;15.560;2023-08-17T04:03:18;101243.50;;;17.50;100.00
10720;BME280;5411;58.386;15.560;2023-08-17T04:05:47;101234.09;;;17.52;100.00
10720;BME280;5411;58.386;15.560;2023-08-17T04:08:18;101244.09;;;17.52;100.00
10720;BME280;5411;58.386;15.560;2023-08-17T04:10:47;101246.34;;;17.55;100.00
10720;BME280;5411;58.386;15.560;2023-08-17T04:13:15;101242.59;;;17.56;100.00
10720;BME280;5411;58.386;15.560;2023-08-17T04:15:46;101237.19;;;17.56;100.00
10720;BME280;5411;58.386;15.560;2023-08-17T04:18:14;101231.16;;;17.54;100.00
10720;BME280;5411;58.386;15.560;2023-08-17T04:20:42;101240.34;;;17.53;100.00
10720;BME280;5411;58.386;15.560;2023-08-17T04:23:10;101225.16;;;17.52;100.00
10720;BME280;5411;58.386;15.560;2023-08-17T04:25:40;101227.03;;;17.51;100.00
10720;BME280;5411;58.386;15.560;2023-08-17T04:28:09;101233.66;;;17.55;100.00
10720;BME280;5411;58.386;15.560;2023-08-17T04:30:40;101234.47;;;17.56;100.00
10720;BME280;5411;58.386;15.560;2023-08-17T04:33:09;101229.53;;;17.53;100.00
10720;BME280;5411;58.386;15.560;2023-08-17T04:35:39;101234.56;;;17.49;100.00
10720;BME280;5411;58.386;15.560;2023-08-17T04:38:07;101232.28;;;17.46;100.00
10720;BME280;5411;58.386;15.560;2023-08-17T04:40:36;101232.28;;;17.46;100.00
10720;BME280;5411;58.386;15.560;2023-08-17T04:43:06;101232.44;;;17.51;100.00
10720;BME280;5411;58.386;15.560;2023-08-17T04:45:34;101235.75;;;17.53;100.00
10720;BME280;5411;58.386;15.560;2023-08-17T04:48:03;101235.88;;;17.58;100.00
10720;BME280;5411;58.386;15.560;2023-08-17T04:50:38;101241.69;;;17.62;100.00
10720;BME280;5411;58.386;15.560;2023-08-17T04:53:08;101242.09;;;17.65;100.00
10720;BME280;5411;58.386;15.560;2023-08-17T04:55:36;101251.25;;;17.64;100.00
10720;BME280;5411;58.386;15.560;2023-08-17T04:58:07;101259.56;;;17.63;100.00
10720;BME280;5411;58.386;15.560;2023-08-17T05:00:35;101261.03;;;17.65;100.00
10720;BME280;5411;58.386;15.560;2023-08-17T05:03:04;101268.22;;;17.71;100.00
10720;BME280;5411;58.386;15.560;2023-08-17T05:05:42;101265.47;;;17.78;100.00
10720;BME280;5411;58.386;15.560;2023-08-17T05:08:11;101261.09;;;17.77;100.00
10720;BME280;5411;58.386;15.560;2023-08-17T05:10:40;101269.44;;;17.75;100.00
10720;BME280;5411;58.386;15.560;2023-08-17T05:13:12;101272.75;;;17.77;100.00
10720;BME280;5411;58.386;15.560;2023-08-17T05:15:41;101275.47;;;17.77;100.00
10720;BME280;5411;58.386;15.560;2023-08-17T05:18:10;101283.97;;;17.81;100.00
10720;BME280;5411;58.386;15.560;2023-08-17T05:20:38;101282.91;;;17.82;100.00
10720;BME280;5411;58.386;15.560;2023-08-17T05:23:06;101290.31;;;17.87;100.00
10720;BME280;5411;58.386;15.560;2023-08-17T05:25:34;101292.81;;;17.88;100.00
10720;BME280;5411;58.386;15.560;2023-08-17T05:28:03;101298.00;;;17.90;100.00
10720;BME280;5411;58.386;15.560;2023-08-17T05:30:34;101299.66;;;17.91;100.00
10720;BME280;5411;58.386;15.560;2023-08-17T05:33:02;101304.19;;;17.97;100.00
10720;BME280;5411;58.386;15.560;2023-08-17T05:35:32;101301.59;;;18.02;100.00
10720;BME280;5411;58.386;15.560;2023-08-17T05:38:00;101297.50;;;18.11;100.00
10720;BME280;5411;58.386;15.560;2023-08-17T05:40:29;101298.03;;;18.20;100.00
10720;BME280;5411;58.386;15.560;2023-08-17T05:42:58;101298.50;;;18.28;100.00
10720;BME280;5411;58.386;15.560;2023-08-17T05:45:26;101295.13;;;18.33;100.00
10720;BME280;5411;58.386;15.560;2023-08-17T05:47:58;101300.31;;;18.34;100.00
10720;BME280;5411;58.386;15.560;2023-08-17T05:50:26;101308.69;;;18.33;100.00
10720;BME280;5411;58.386;15.560;2023-08-17T05:52:54;101311.38;;;18.33;100.00
10720;BME280;5411;58.386;15.560;2023-08-17T05:55:25;101308.44;;;18.34;100.00
10720;BME280;5411;58.386;15.560;2023-08-17T05:57:54;101313.97;;;18.39;100.00
10720;BME280;5411;58.386;15.560;2023-08-17T06:00:22;101305.88;;;18.51;100.00
10720;BME280;5411;58.386;15.560;2023-08-17T06:02:50;101315.81;;;18.57;100.00
10720;BME280;5411;58.386;15.560;2023-08-17T06:05:23;101325.69;;;18.51;100.00
10720;BME280;5411;58.386;15.560;2023-08-17T06:07:54;101323.91;;;18.45;100.00
10720;BME280;5411;58.386;15.560;2023-08-17T06:10:22;101323.75;;;18.40;100.00
10720;BME280;5411;58.386;15.560;2023-08-17T06:12:52;101322.13;;;18.39;100.00
10720;BME280;5411;58.386;15.560;2023-08-17T06:15:20;101325.31;;;18.36;100.00
10720;BME280;5411;58.386;15.560;2023-08-17T06:17:49;101332.00;;;18.34;100.00
10720;BME280;5411;58.386;15.560;2023-08-17T06:20:19;101319.13;;;18.29;100.00
10720;BME280;5411;58.386;15.560;2023-08-17T06:22:48;101329.38;;;18.27;100.00
10720;BME280;5411;58.386;15.560;2023-08-17T06:25:17;101324.44;;;18.24;100.00
10720;BME280;5411;58.386;15.560;2023-08-17T06:27:45;101329.16;;;18.29;100.00
10720;BME280;5411;58.386;15.560;2023-08-17T06:30:14;101331.84;;;18.29;100.00
10720;BME280;5411;58.386;15.560;2023-08-17T06:32:43;101333.06;;;18.33;100.00
10720;BME280;5411;58.386;15.560;2023-08-17T06:35:11;101342.47;;;18.30;100.00
10720;BME280;5411;58.386;15.560;2023-08-17T06:37:41;101338.09;;;18.29;100.00
10720;BME280;5411;58.386;15.560;2023-08-17T06:40:09;101338.94;;;18.30;100.00
10720;BME280;5411;58.386;15.560;2023-08-17T06:42:37;101342.25;;;18.32;100.00
10720;BME280;5411;58.386;15.560;2023-08-17T06:45:07;101346.22;;;18.29;100.00
10720;BME280;5411;58.386;15.560;2023-08-17T06:47:41;101350.44;;;18.25;100.00
10720;BME280;5411;58.386;15.560;2023-08-17T06:50:10;101351.97;;;18.21;100.00
10720;BME280;5411;58.386;15.560;2023-08-17T06:52:43;101354.69;;;18.21;100.00
10720;BME280;5411;58.386;15.560;2023-08-17T06:55:11;101354.09;;;18.19;100.00
10720;BME280;5411;58.386;15.560;2023-08-17T06:57:39;101357.63;;;18.20;100.00
10720;BME280;5411;58.386;15.560;2023-08-17T07:00:08;101348.44;;;18.21;100.00
10720;BME280;5411;58.386;15.560;2023-08-17T07:02:37;101359.41;;;18.26;100.00
10720;BME280;5411;58.386;15.560;2023-08-17T07:05:22;101367.84;;;18.36;100.00
10720;BME280;5411;58.386;15.560;2023-08-17T07:07:54;101360.44;;;18.43;100.00
10720;BME280;5411;58.386;15.560;2023-08-17T07:10:23;101365.63;;;18.44;100.00
10720;BME280;5411;58.386;15.560;2023-08-17T07:12:57;101364.34;;;18.47;100.00
10720;BME280;5411;58.386;15.560;2023-08-17T07:15:29;101357.63;;;18.49;100.00
10720;BME280;5411;58.386;15.560;2023-08-17T07:17:57;101366.59;;;18.50;100.00
10720;BME280;5411;58.386;15.560;2023-08-17T07:20:26;101361.19;;;18.50;100.00
10720;BME280;5411;58.386;15.560;2023-08-17T07:22:58;101363.88;;;18.50;100.00
10720;BME280;5411;58.386;15.560;2023-08-17T07:25:26;101367.66;;;18.49;100.00
10720;BME280;5411;58.386;15.560;2023-08-17T07:27:55;101365.78;;;18.49;100.00
10720;BME280;5411;58.386;15.560;2023-08-17T07:30:27;101378.13;;;18.45;100.00
10720;BME280;5411;58.386;15.560;2023-08-17T07:32:55;101379.91;;;18.51;100.00
10720;BME280;5411;58.386;15.560;2023-08-17T07:35:23;101378.56;;;18.61;100.00
10720;BME280;5411;58.386;15.560;2023-08-17T07:37:51;101377.16;;;18.70;100.00
10720;BME280;5411;58.386;15.560;2023-08-17T07:40:36;101374.72;;;18.80;100.00
10720;BME280;5411;58.386;15.560;2023-08-17T07:43:04;101376.06;;;18.89;100.00
10720;BME280;5411;58.386;15.560;2023-08-17T07:45:37;101386.13;;;19.12;100.00
10720;BME280;5411;58.386;15.560;2023-08-17T07:48:06;101384.94;;;19.31;100.00
10720;BME280;5411;58.386;15.560;2023-08-17T07:50:34;101382.97;;;19.50;100.00
10720;BME280;5411;58.386;15.560;2023-08-17T07:53:05;101388.28;;;19.68;100.00
10720;BME280;5411;58.386;15.560;2023-08-17T07:55:33;101389.44;;;19.84;100.00
10720;BME280;5411;58.386;15.560;2023-08-17T07:58:03;101401.22;;;20.01;100.00
10720;BME280;5411;58.386;15.560;2023-08-17T08:00:33;101395.50;;;20.14;100.00
10720;BME280;5411;58.386;15.560;2023-08-17T08:03:01;101399.84;;;20.27;100.00
10720;BME280;5411;58.386;15.560;2023-08-17T08:05:30;101409.16;;;20.43;100.00
10720;BME280;5411;58.386;15.560;2023-08-17T08:07:58;101405.25;;;20.50;100.00
10720;BME280;5411;58.386;15.560;2023-08-17T08:10:28;101410.53;;;20.57;100.00
10720;BME280;5411;58.386;15.560;2023-08-17T08:12:58;101410.47;;;20.69;100.00
10720;BME280;5411;58.386;15.560;2023-08-17T08:15:28;101408.97;;;20.89;100.00
10720;BME280;5411;58.386;15.560;2023-08-17T08:17:59;101414.00;;;20.97;98.27
10720;BME280;5411;58.386;15.560;2023-08-17T08:20:28;101421.91;;;20.99;99.02
10720;BME280;5411;58.386;15.560;2023-08-17T08:22:56;101424.22;;;21.07;97.52
10720;BME280;5411;58.386;15.560;2023-08-17T08:25:27;101419.22;;;21.16;97.86
10720;BME280;5411;58.386;15.560;2023-08-17T08:27:56;101416.25;;;21.34;97.17
10720;BME280;5411;58.386;15.560;2023-08-17T08:30:24;101421.59;;;21.62;95.37
10720;BME280;5411;58.386;15.560;2023-08-17T08:35:27;101422.22;;;21.86;93.16
10720;BME280;5411;58.386;15.560;2023-08-17T08:37:58;101420.13;;;22.10;92.04
10720;BME280;5411;58.386;15.560;2023-08-17T08:40:28;101417.81;;;22.24;91.03
10720;BME280;5411;58.386;15.560;2023-08-17T08:42:57;101421.38;;;22.24;90.02
10720;BME280;5411;58.386;15.560;2023-08-17T08:45:28;101432.16;;;22.36;89.89
10720;BME280;5411;58.386;15.560;2023-08-17T08:48:00;101423.28;;;22.46;88.51
10720;BME280;5411;58.386;15.560;2023-08-17T08:50:31;101424.59;;;22.43;87.10
10720;BME280;5411;58.386;15.560;2023-08-17T08:53:11;101432.47;;;22.39;87.56
10720;BME280;5411;58.386;15.560;2023-08-17T08:55:48;101430.06;;;22.43;86.00
10720;BME280;5411;58.386;15.560;2023-08-17T08:58:21;101429.34;;;22.53;87.52
10720;BME280;5411;58.386;15.560;2023-08-17T09:00:50;101423.94;;;22.80;86.96
10720;BME280;5411;58.386;15.560;2023-08-17T09:03:20;101435.38;;;23.03;88.03
10720;BME280;5411;58.386;15.560;2023-08-17T09:06:00;101437.25;;;23.30;82.37
10720;BME280;5411;58.386;15.560;2023-08-17T09:08:29;101434.78;;;23.33;81.99
10720;BME280;5411;58.386;15.560;2023-08-17T09:10:58;101432.88;;;23.29;82.54
10720;BME280;5411;58.386;15.560;2023-08-17T09:13:26;101439.34;;;23.23;80.66
10720;BME280;5411;58.386;15.560;2023-08-17T09:15:57;101447.06;;;23.31;81.06
10720;BME280;5411;58.386;15.560;2023-08-17T09:18:34;101438.66;;;23.37;81.79
10720;BME280;5411;58.386;15.560;2023-08-17T09:21:05;101441.53;;;23.53;79.58
10720;BME280;5411;58.386;15.560;2023-08-17T09:23:33;101445.81;;;23.80;79.40
10720;BME280;5411;58.386;15.560;2023-08-17T09:26:08;101435.28;;;24.04;78.10
10720;BME280;5411;58.386;15.560;2023-08-17T09:28:38;101438.44;;;24.23;76.35
10720;BME280;5411;58.386;15.560;2023-08-17T09:31:07;101448.09;;;24.46;76.68
10720;BME280;5411;58.386;15.560;2023-08-17T09:33:37;101441.00;;;24.65;77.19
10720;BME280;5411;58.386;15.560;2023-08-17T09:36:11;101444.09;;;24.89;76.88
10720;BME280;5411;58.386;15.560;2023-08-17T09:38:41;101436.72;;;25.05;75.22
10720;BME280;5411;58.386;15.560;2023-08-17T09:41:09;101450.16;;;25.06;73.45
10720;BME280;5411;58.386;15.560;2023-08-17T09:43:38;101447.16;;;25.03;72.36
10720;BME280;5411;58.386;15.560;2023-08-17T09:46:06;101451.50;;;25.04;70.20
10720;BME280;5411;58.386;15.560;2023-08-17T09:48:35;101446.59;;;25.06;69.69
10720;BME280;5411;58.386;15.560;2023-08-17T09:51:06;101449.06;;;25.23;70.67
10720;BME280;5411;58.386;15.560;2023-08-17T09:53:36;101442.22;;;25.40;70.18
10720;BME280;5411;58.386;15.560;2023-08-17T09:56:07;101449.34;;;25.62;64.51
10720;BME280;5411;58.386;15.560;2023-08-17T09:58:43;101452.91;;;25.67;68.06
10720;BME280;5411;58.386;15.560;2023-08-17T10:01:15;101443.59;;;25.68;67.34
10720;BME280;5411;58.386;15.560;2023-08-17T10:03:44;101439.22;;;25.62;64.76
10720;BME280;5411;58.386;15.560;2023-08-17T10:06:20;101449.06;;;25.48;64.22
10720;BME280;5411;58.386;15.560;2023-08-17T10:08:54;101442.22;;;25.30;64.58
10720;BME280;5411;58.386;15.560;2023-08-17T10:11:26;101444.13;;;25.19;64.28
10720;BME280;5411;58.386;15.560;2023-08-17T10:13:59;101443.56;;;25.07;64.70
10720;BME280;5411;58.386;15.560;2023-08-17T10:16:37;101449.31;;;24.96;65.07
10720;BME280;5411;58.386;15.560;2023-08-17T10:19:18;101448.69;;;24.78;67.23
10720;BME280;5411;58.386;15.560;2023-08-17T10:21:56;101444.59;;;24.71;67.79
10720;BME280;5411;58.386;15.560;2023-08-17T10:24:28;101455.25;;;24.67;66.66
10720;BME280;5411;58.386;15.560;2023-08-17T10:26:58;101453.88;;;24.65;67.05
10720;BME280;5411;58.386;15.560;2023-08-17T10:29:29;101448.41;;;24.60;67.45
10720;BME280;5411;58.386;15.560;2023-08-17T10:31:59;101454.66;;;24.55;68.79
10720;BME280;5411;58.386;15.560;2023-08-17T10:34:30;101450.28;;;24.49;67.27
10720;BME280;5411;58.386;15.560;2023-08-17T10:37:02;101453.53;;;24.36;68.68
10720;BME280;5411;58.386;15.560;2023-08-17T10:39:33;101455.16;;;24.37;68.21
10720;BME280;5411;58.386;15.560;2023-08-17T10:42:06;101445.63;;;24.44;68.16
10720;BME280;5411;58.386;15.560;2023-08-17T10:44:38;101440.97;;;24.55;68.94
10720;BME280;5411;58.386;15.560;2023-08-17T10:47:25;101448.69;;;24.63;68.90
10720;BME280;5411;58.386;15.560;2023-08-17T10:50:06;101443.22;;;24.63;67.78
10720;BME280;5411;58.386;15.560;2023-08-17T10:52:37;101451.97;;;24.60;68.37
10720;BME280;5411;58.386;15.560;2023-08-17T10:55:06;101449.72;;;24.52;67.18
10720;BME280;5411;58.386;15.560;2023-08-17T10:57:36;101450.81;;;24.51;67.00
10720;BME280;5411;58.386;15.560;2023-08-17T11:00:13;101444.25;;;24.47;68.23
10720;BME280;5411;58.386;15.560;2023-08-17T11:02:45;101447.56;;;24.59;67.96
10720;BME280;5411;58.386;15.560;2023-08-17T11:05:13;101437.75;;;24.73;66.93
10720;BME280;5411;58.386;15.560;2023-08-17T11:07:47;101435.56;;;24.75;66.76
10720;BME280;5411;58.386;15.560;2023-08-17T11:10:30;101443.28;;;24.89;65.23
10720;BME280;5411;58.386;15.560;2023-08-17T11:13:00;101433.94;;;24.84;65.94
10720;BME280;5411;58.386;15.560;2023-08-17T11:15:36;101441.59;;;24.82;65.70
10720;BME280;5411;58.386;15.560;2023-08-17T11:18:12;101439.09;;;24.66;66.50
10720;BME280;5411;58.386;15.560;2023-08-17T11:20:41;101434.72;;;24.60;66.69
10720;BME280;5411;58.386;15.560;2023-08-17T11:23:11;101426.78;;;24.68;66.83
10720;BME280;5411;58.386;15.560;2023-08-17T11:25:42;101436.09;;;24.72;65.73
10720;BME280;5411;58.386;15.560;2023-08-17T11:28:15;101437.50;;;24.90;67.86
10720;BME280;5411;58.386;15.560;2023-08-17T11:30:43;101442.78;;;25.12;64.81
10720;BME280;5411;58.386;15.560;2023-08-17T11:33:13;101441.13;;;25.21;62.01
10720;BME280;5411;58.386;15.560;2023-08-17T11:35:44;101442.22;;;25.35;63.55
10720;BME280;5411;58.386;15.560;2023-08-17T11:38:18;101447.69;;;25.45;63.04
10720;BME280;5411;58.386;15.560;2023-08-17T11:40:46;101450.72;;;25.49;62.65
10720;BME280;5411;58.386;15.560;2023-08-17T11:43:14;101457.03;;;25.54;62.85
10720;BME280;5411;58.386;15.560;2023-08-17T11:45:48;101457.84;;;25.55;64.13
10720;BME280;5411;58.386;15.560;2023-08-17T11:48:18;101460.31;;;25.51;61.66
10720;BME280;5411;58.386;15.560;2023-08-17T11:50:48;101460.84;;;25.53;62.19
10720;BME280;5411;58.386;15.560;2023-08-17T11:53:17;101458.66;;;25.45;61.04
10720;BME280;5411;58.386;15.560;2023-08-17T11:55:46;101463.31;;;25.45;62.17
10720;BME280;5411;58.386;15.560;2023-08-17T11:58:14;101466.88;;;25.50;62.03
10720;BME280;5411;58.386;15.560;2023-08-17T12:00:44;101464.69;;;25.52;61.51
10720;BME280;5411;58.386;15.560;2023-08-17T12:03:16;101462.78;;;25.68;61.39
10720;BME280;5411;58.386;15.560;2023-08-17T12:05:44;101463.88;;;25.67;60.25
10720;BME280;5411;58.386;15.560;2023-08-17T12:08:14;101472.94;;;25.42;59.47
10720;BME280;5411;58.386;15.560;2023-08-17T12:10:45;101465.22;;;25.34;60.22
10720;BME280;5411;58.386;15.560;2023-08-17T12:13:14;101472.63;;;25.24;62.15
10720;BME280;5411;58.386;15.560;2023-08-17T12:15:42;101478.38;;;25.17;62.48
10720;BME280;5411;58.386;15.560;2023-08-17T12:18:10;101474.28;;;25.19;63.97
10720;BME280;5411;58.386;15.560;2023-08-17T12:20:39;101476.19;;;25.14;62.83
10720;BME280;5411;58.386;15.560;2023-08-17T12:23:10;101471.25;;;25.11;63.61
10720;BME280;5411;58.386;15.560;2023-08-17T12:25:38;101470.97;;;24.97;63.48
10720;BME280;5411;58.386;15.560;2023-08-17T12:28:08;101472.31;;;24.95;64.50
10720;BME280;5411;58.386;15.560;2023-08-17T12:30:36;101471.78;;;24.98;63.99
10720;BME280;5411;58.386;15.560;2023-08-17T12:33:05;101463.59;;;25.03;65.35
10720;BME280;5411;58.386;15.560;2023-08-17T12:35:33;101472.63;;;25.08;63.47
10720;BME280;5411;58.386;15.560;2023-08-17T12:38:01;101468.81;;;25.14;62.77
10720;BME280;5411;58.386;15.560;2023-08-17T12:40:30;101464.13;;;25.20;64.28
10720;BME280;5411;58.386;15.560;2023-08-17T12:42:58;101457.84;;;25.14;61.56
10720;BME280;5411;58.386;15.560;2023-08-17T12:45:27;101463.56;;;24.98;62.01
10720;BME280;5411;58.386;15.560;2023-08-17T12:47:56;101467.34;;;24.86;61.73
10720;BME280;5411;58.386;15.560;2023-08-17T12:50:25;101473.34;;;24.78;62.32
10720;BME280;5411;58.386;15.560;2023-08-17T12:52:53;101464.34;;;24.83;61.97
10720;BME280;5411;58.386;15.560;2023-08-17T12:55:21;101470.09;;;24.86;62.49
10720;BME280;5411;58.386;15.560;2023-08-17T12:57:50;101460.50;;;24.84;61.59
10720;BME280;5411;58.386;15.560;2023-08-17T13:00:29;101456.41;;;24.86;62.43